createdAt,value
2023-05-22T00:01:46.945Z,7.40
2023-05-22T00:04:21.370Z,7.50
2023-05-22T00:06:49.570Z,7.60
2023-05-22T00:09:17.476Z,7.60
2023-05-22T00:11:45.298Z,7.70
2023-05-22T00:14:16.220Z,7.50
2023-05-22T00:16:44.121Z,7.60
2023-05-22T00:19:16.723Z,7.70
2023-05-22T00:21:45.019Z,7.60
2023-05-22T00:24:13.088Z,7.60
2023-05-22T00:26:40.846Z,7.70
2023-05-22T00:29:09.512Z,7.50
2023-05-22T00:31:37.333Z,7.60
2023-05-22T00:34:05.077Z,7.60
2023-05-22T00:36:32.807Z,7.60
2023-05-22T00:39:01.080Z,7.50
2023-05-22T00:41:28.976Z,7.40
2023-05-22T00:43:56.640Z,7.40
2023-05-22T00:46:24.676Z,7.40
2023-05-22T00:48:53.132Z,7.40
2023-05-22T00:51:22.255Z,7.40
2023-05-22T00:53:51.183Z,7.50
2023-05-22T00:56:19.543Z,7.30
2023-05-22T00:58:47.622Z,7.40
2023-05-22T01:01:16.189Z,7.30
2023-05-22T01:03:45.881Z,7.20
2023-05-22T01:06:21.590Z,7.30
2023-05-22T01:08:49.355Z,7.30
2023-05-22T01:11:29.864Z,7.30
2023-05-22T01:14:21.005Z,7.30
2023-05-22T01:17:13.416Z,7.30
2023-05-22T01:20:17.466Z,7.30
2023-05-22T01:23:25.274Z,7.20
2023-05-22T01:26:14.745Z,7.20
2023-05-22T01:28:50.525Z,7.20
2023-05-22T01:31:19.907Z,7.20
2023-05-22T01:33:55.196Z,7.00
2023-05-22T01:36:26.349Z,7.20
2023-05-22T01:38:54.814Z,7.30
2023-05-22T01:41:23.308Z,7.20
2023-05-22T01:43:51.155Z,6.90
2023-05-22T01:46:19.190Z,6.90
2023-05-22T01:48:46.946Z,6.90
2023-05-22T01:51:34.000Z,6.90
2023-05-22T01:54:15.396Z,6.90
2023-05-22T01:56:48.936Z,6.80
2023-05-22T01:59:40.010Z,6.80
2023-05-22T02:02:10.534Z,7.00
2023-05-22T02:04:42.327Z,7.10
2023-05-22T02:07:13.967Z,7.10
2023-05-22T02:09:44.334Z,7.10
2023-05-22T02:12:13.784Z,7.20
2023-05-22T02:14:43.220Z,7.10
2023-05-22T02:17:11.562Z,7.20
2023-05-22T02:19:39.535Z,7.20
2023-05-22T02:22:10.003Z,7.30
2023-05-22T02:24:37.997Z,7.30
2023-05-22T02:27:05.987Z,7.30
2023-05-22T02:29:33.676Z,7.20
2023-05-22T02:32:01.674Z,7.00
2023-05-22T02:34:31.795Z,7.00
2023-05-22T02:37:00.247Z,7.00
2023-05-22T02:39:28.172Z,7.10
2023-05-22T02:41:56.150Z,7.10
2023-05-22T02:44:23.921Z,6.90
2023-05-22T02:46:51.791Z,6.90
2023-05-22T02:49:19.545Z,7.00
2023-05-22T02:51:48.024Z,7.10
2023-05-22T02:54:16.454Z,6.90
2023-05-22T02:56:44.414Z,7.00
2023-05-22T02:59:12.168Z,7.00
2023-05-22T03:01:40.412Z,7.00
2023-05-22T03:04:08.126Z,7.00
2023-05-22T03:06:37.262Z,7.00
2023-05-22T03:09:05.342Z,6.90
2023-05-22T03:11:33.018Z,6.90
2023-05-22T03:14:01.057Z,6.80
2023-05-22T03:16:28.884Z,6.80
2023-05-22T03:19:17.421Z,6.80
2023-05-22T03:21:45.214Z,6.80
2023-05-22T03:24:13.796Z,6.80
2023-05-22T03:26:42.042Z,6.70
2023-05-22T03:29:14.710Z,6.70
2023-05-22T03:31:43.557Z,6.80
2023-05-22T03:34:14.539Z,6.90
2023-05-22T03:36:45.356Z,7.00
2023-05-22T03:39:15.235Z,7.00
2023-05-22T03:41:50.944Z,7.00
2023-05-22T03:44:19.270Z,6.90
2023-05-22T03:46:47.138Z,6.90
2023-05-22T03:49:16.071Z,6.90
2023-05-22T03:51:43.803Z,6.90
2023-05-22T03:54:11.877Z,7.00
2023-05-22T03:56:39.623Z,6.90
2023-05-22T03:59:07.421Z,6.90
2023-05-22T04:01:35.163Z,6.90
2023-05-22T04:04:05.544Z,6.80
2023-05-22T04:06:33.380Z,7.00
2023-05-22T04:09:01.276Z,7.00
2023-05-22T04:11:30.626Z,7.10
2023-05-22T04:14:03.900Z,7.10
2023-05-22T04:16:32.160Z,7.10
2023-05-22T04:19:03.633Z,7.10
2023-05-22T04:21:34.536Z,7.10
2023-05-22T04:24:07.055Z,7.10
2023-05-22T04:26:36.238Z,7.10
2023-05-22T04:29:04.558Z,7.10
2023-05-22T04:31:32.782Z,7.20
2023-05-22T04:34:00.533Z,7.30
2023-05-22T04:36:29.220Z,7.30
2023-05-22T04:38:57.495Z,7.30
2023-05-22T04:41:29.691Z,7.30
2023-05-22T04:43:58.664Z,7.40
2023-05-22T04:46:26.399Z,7.40
2023-05-22T04:48:54.194Z,7.50
2023-05-22T04:51:23.182Z,7.50
2023-05-22T04:53:52.090Z,7.50
2023-05-22T04:56:31.684Z,7.60
2023-05-22T04:59:00.179Z,7.60
2023-05-22T05:01:31.669Z,7.70
2023-05-22T05:04:01.100Z,7.80
2023-05-22T05:06:28.927Z,7.90
2023-05-22T05:08:56.542Z,8.20
2023-05-22T05:11:24.308Z,8.40
2023-05-22T05:13:52.048Z,8.70
2023-05-22T05:16:20.677Z,9.00
2023-05-22T05:18:48.409Z,9.30
2023-05-22T05:21:16.155Z,9.40
2023-05-22T05:23:44.817Z,9.60
2023-05-22T05:26:12.532Z,9.80
2023-05-22T05:28:40.740Z,9.80
2023-05-22T05:31:10.217Z,10.00
2023-05-22T05:34:07.399Z,10.00
2023-05-22T05:36:49.814Z,10.40
2023-05-22T05:39:18.405Z,10.50
2023-05-22T05:41:46.123Z,10.70
2023-05-22T05:44:13.843Z,10.90
2023-05-22T05:46:41.905Z,11.00
2023-05-22T05:49:11.285Z,11.20
2023-05-22T05:51:41.101Z,11.40
2023-05-22T05:54:09.371Z,11.40
2023-05-22T05:56:41.007Z,11.50
2023-05-22T05:59:09.905Z,11.50
2023-05-22T06:01:38.851Z,11.70
2023-05-22T06:04:13.395Z,11.60
2023-05-22T06:06:42.510Z,11.60
2023-05-22T06:09:10.459Z,11.70
2023-05-22T06:11:56.552Z,11.80
2023-05-22T06:14:25.156Z,11.90
2023-05-22T06:16:52.976Z,12.00
2023-05-22T06:19:21.749Z,12.20
2023-05-22T06:21:52.014Z,12.50
2023-05-22T06:24:21.502Z,12.50
2023-05-22T06:26:49.246Z,12.80
2023-05-22T06:29:16.939Z,12.90
2023-05-22T06:31:46.962Z,12.90
2023-05-22T06:34:18.218Z,12.90
2023-05-22T06:36:46.098Z,13.10
2023-05-22T06:39:14.644Z,13.30
2023-05-22T06:41:57.398Z,13.50
2023-05-22T06:44:25.874Z,13.70
2023-05-22T06:46:56.476Z,13.80
2023-05-22T06:49:28.871Z,13.90
2023-05-22T06:51:57.254Z,14.10
2023-05-22T06:54:28.637Z,14.20
2023-05-22T06:56:59.644Z,14.00
2023-05-22T06:59:29.682Z,14.10
2023-05-22T07:02:03.526Z,14.30
2023-05-22T07:04:50.433Z,14.50
2023-05-22T07:07:22.748Z,14.50
2023-05-22T07:09:50.691Z,14.60
2023-05-22T07:12:20.476Z,14.80
2023-05-22T07:14:48.921Z,14.80
2023-05-22T07:17:18.772Z,15.00
2023-05-22T07:19:46.827Z,15.10
2023-05-22T07:22:15.306Z,15.20
2023-05-22T07:24:47.360Z,15.50
2023-05-22T07:27:16.806Z,15.50
2023-05-22T07:29:47.010Z,15.40
2023-05-22T07:32:14.763Z,15.50
2023-05-22T07:34:44.424Z,15.70
2023-05-22T07:37:14.274Z,16.00
2023-05-22T07:39:44.032Z,15.80
2023-05-22T07:42:13.632Z,15.80
2023-05-22T07:44:47.875Z,16.10
2023-05-22T07:47:19.636Z,16.30
2023-05-22T07:49:47.689Z,16.30
2023-05-22T07:52:16.147Z,16.50
2023-05-22T07:54:45.250Z,16.70
2023-05-22T07:57:14.205Z,16.70
2023-05-22T07:59:44.255Z,16.60
2023-05-22T08:02:12.109Z,16.50
2023-05-22T08:04:40.161Z,16.90
2023-05-22T08:07:07.928Z,17.40
2023-05-22T08:09:35.734Z,17.50
2023-05-22T08:12:03.874Z,17.80
2023-05-22T08:14:31.624Z,18.10
2023-05-22T08:17:00.381Z,18.00
2023-05-22T08:19:28.082Z,18.10
2023-05-22T08:21:59.089Z,17.90
2023-05-22T08:24:28.677Z,17.50
2023-05-22T08:27:08.955Z,17.00
2023-05-22T08:29:36.851Z,16.70
2023-05-22T08:32:05.004Z,17.30
2023-05-22T08:34:33.972Z,17.60
2023-05-22T08:37:01.675Z,17.60
2023-05-22T08:39:29.425Z,17.70
2023-05-22T08:41:57.223Z,17.70
2023-05-22T08:44:25.399Z,18.30
2023-05-22T08:46:56.798Z,18.50
2023-05-22T08:49:24.969Z,18.90
2023-05-22T08:52:03.474Z,18.90
2023-05-22T08:54:32.602Z,19.30
2023-05-22T08:57:03.445Z,19.00
2023-05-22T08:59:31.330Z,19.20
2023-05-22T09:01:59.413Z,19.60
2023-05-22T09:04:28.724Z,19.90
2023-05-22T09:06:56.393Z,19.60
2023-05-22T09:09:24.148Z,19.80
2023-05-22T09:11:53.255Z,20.20
2023-05-22T09:14:21.104Z,20.60
2023-05-22T09:16:51.842Z,20.80
2023-05-22T09:20:23.972Z,21.20
2023-05-22T09:22:51.656Z,21.40
2023-05-22T09:25:21.146Z,21.50
2023-05-22T09:27:51.474Z,21.50
2023-05-22T09:30:20.029Z,22.20
2023-05-22T09:33:30.336Z,22.60
2023-05-22T09:40:14.352Z,23.10
2023-05-22T09:43:29.934Z,24.00
2023-05-22T09:46:01.006Z,23.80
2023-05-22T09:48:28.855Z,24.20
2023-05-22T09:50:59.899Z,24.40
2023-05-22T10:02:14.717Z,25.30
2023-05-22T10:04:44.396Z,25.80
2023-05-22T10:07:23.812Z,25.70
2023-05-22T10:10:14.675Z,26.10
2023-05-22T10:12:56.458Z,25.00
2023-05-22T10:15:24.973Z,24.10
2023-05-22T10:17:53.534Z,24.10
2023-05-22T10:20:24.098Z,24.20
2023-05-22T10:22:54.531Z,25.50
2023-05-22T10:25:23.091Z,26.20
2023-05-22T10:27:53.812Z,26.90
2023-05-22T10:30:40.934Z,27.10
2023-05-22T10:34:27.613Z,26.90
2023-05-22T10:37:16.512Z,26.90
2023-05-22T10:40:05.645Z,25.30
2023-05-22T10:42:34.629Z,25.10
2023-05-22T10:49:28.620Z,26.50
2023-05-22T10:51:57.534Z,26.60
2023-05-22T10:54:43.415Z,26.40
2023-05-22T10:57:19.014Z,27.00
2023-05-22T10:59:49.883Z,27.40
2023-05-22T11:02:31.369Z,26.80
2023-05-22T11:05:23.236Z,27.10
2023-05-22T11:07:51.083Z,27.90
2023-05-22T11:10:48.158Z,27.30
2023-05-22T11:13:18.137Z,27.90
2023-05-22T11:15:46.852Z,28.60
2023-05-22T11:18:15.095Z,28.40
2023-05-22T11:20:44.426Z,28.40
2023-05-22T11:23:12.316Z,27.50
2023-05-22T11:29:08.518Z,27.70
2023-05-22T11:31:39.830Z,28.00
2023-05-22T11:34:08.611Z,28.30
2023-05-22T11:36:38.584Z,27.40
2023-05-22T11:39:06.383Z,27.80
2023-05-22T11:41:34.736Z,28.50
2023-05-22T11:44:02.682Z,29.20
2023-05-22T11:46:30.487Z,29.40
2023-05-22T11:49:01.221Z,29.70
2023-05-22T11:51:29.411Z,28.50
2023-05-22T11:54:24.958Z,28.00
2023-05-22T12:01:08.088Z,29.70
2023-05-22T12:03:35.885Z,29.60
2023-05-22T12:06:11.698Z,28.00
2023-05-22T12:09:20.569Z,27.00
2023-05-22T12:11:49.004Z,27.50
2023-05-22T12:14:24.575Z,26.50
2023-05-22T12:21:21.354Z,25.00
2023-05-22T12:27:18.844Z,25.00
2023-05-22T12:29:46.538Z,24.20
2023-05-22T12:32:14.354Z,23.90
2023-05-22T12:38:32.481Z,23.80
2023-05-22T12:41:01.786Z,24.10
2023-05-22T12:43:29.578Z,24.20
2023-05-22T12:45:57.451Z,24.30
2023-05-22T12:48:26.154Z,24.20
2023-05-22T12:50:54.434Z,24.10
2023-05-22T12:53:22.242Z,23.90
2023-05-22T12:55:50.074Z,24.10
2023-05-22T12:58:17.731Z,24.30
2023-05-22T13:00:45.450Z,24.90
2023-05-22T13:03:13.237Z,25.00
2023-05-22T13:05:41.860Z,25.00
2023-05-22T13:08:10.051Z,25.00
2023-05-22T13:10:38.614Z,24.30
2023-05-22T13:13:06.357Z,24.40
2023-05-22T13:15:36.321Z,24.60
2023-05-22T13:18:04.362Z,24.40
2023-05-22T13:20:32.057Z,24.60
2023-05-22T13:22:59.751Z,24.50
2023-05-22T13:25:27.371Z,24.50
2023-05-22T13:27:55.108Z,23.90
2023-05-22T13:30:22.803Z,23.40
2023-05-22T13:32:50.536Z,23.30
2023-05-22T13:35:18.944Z,23.10
2023-05-22T13:37:46.872Z,23.20
2023-05-22T13:40:16.235Z,23.70
2023-05-22T13:42:44.503Z,23.80
2023-05-22T13:45:12.493Z,23.90
2023-05-22T13:47:40.510Z,24.20
2023-05-22T13:50:08.855Z,24.30
2023-05-22T13:52:36.717Z,24.00
2023-05-22T13:55:04.544Z,23.80
2023-05-22T13:57:32.247Z,23.80
2023-05-22T13:59:59.965Z,23.70
2023-05-22T14:02:27.731Z,23.50
2023-05-22T14:04:58.032Z,23.00
2023-05-22T14:07:25.739Z,22.70
2023-05-22T14:09:53.610Z,22.50
2023-05-22T14:12:21.361Z,22.60
2023-05-22T14:14:52.106Z,22.80
2023-05-22T14:17:19.918Z,22.80
2023-05-22T14:19:47.635Z,22.60
2023-05-22T14:22:18.519Z,22.50
2023-05-22T14:24:46.335Z,22.20
2023-05-22T14:27:13.996Z,21.80
2023-05-22T14:29:44.013Z,21.60
2023-05-22T14:32:11.766Z,21.60
2023-05-22T14:34:42.445Z,21.60
2023-05-22T14:37:10.104Z,22.10
2023-05-22T14:39:37.770Z,22.50
2023-05-22T14:42:05.816Z,22.60
2023-05-22T14:44:33.503Z,22.80
2023-05-22T14:47:01.121Z,22.90
2023-05-22T14:49:28.803Z,23.00
2023-05-22T14:51:56.579Z,22.80
2023-05-22T14:54:24.236Z,22.80
2023-05-22T14:56:52.022Z,22.90
2023-05-22T14:59:21.135Z,22.90
2023-05-22T15:01:50.561Z,22.80
2023-05-22T15:04:18.527Z,23.00
2023-05-22T15:06:46.322Z,22.90
2023-05-22T15:09:14.027Z,22.60
2023-05-22T15:11:45.679Z,22.20
2023-05-22T15:14:13.374Z,22.10
2023-05-22T15:16:41.420Z,22.30
2023-05-22T15:19:09.638Z,22.60
2023-05-22T15:21:37.461Z,22.60
2023-05-22T15:24:05.335Z,22.80
2023-05-22T15:26:33.035Z,22.80
2023-05-22T15:29:01.388Z,22.70
2023-05-22T15:31:30.362Z,22.70
2023-05-22T15:33:58.198Z,22.70
2023-05-22T15:36:27.797Z,22.60
2023-05-22T15:38:55.886Z,22.40
2023-05-22T15:41:23.733Z,22.50
2023-05-22T15:43:53.336Z,22.60
2023-05-22T15:46:21.357Z,22.70
2023-05-22T15:48:49.120Z,22.60
2023-05-22T15:51:17.019Z,22.50
2023-05-22T15:53:58.359Z,22.30
2023-05-22T15:56:28.566Z,22.00
2023-05-22T15:58:56.303Z,21.80
2023-05-22T16:05:34.802Z,21.50
2023-05-22T16:08:02.665Z,21.30
2023-05-22T16:15:06.845Z,21.20
2023-05-22T16:17:34.818Z,21.00
2023-05-22T16:20:04.723Z,21.00
2023-05-22T16:22:44.127Z,20.90
2023-05-22T16:25:17.472Z,20.80
2023-05-22T16:27:45.297Z,20.70
2023-05-22T16:30:16.859Z,20.60
2023-05-22T16:32:48.497Z,20.50
2023-05-22T16:35:16.624Z,20.40
2023-05-22T16:37:44.256Z,20.30
2023-05-22T16:40:12.255Z,20.10
2023-05-22T16:42:40.143Z,20.00
2023-05-22T16:45:08.238Z,19.90
2023-05-22T16:47:36.251Z,19.90
2023-05-22T16:50:07.241Z,19.80
2023-05-22T16:52:35.067Z,19.70
2023-05-22T16:55:02.892Z,19.60
2023-05-22T16:57:31.373Z,19.50
2023-05-22T16:59:59.425Z,19.60
2023-05-22T17:02:27.474Z,19.60
2023-05-22T17:04:55.313Z,19.60
2023-05-22T17:07:23.567Z,19.60
2023-05-22T17:09:52.899Z,19.70
2023-05-22T17:12:20.754Z,19.60
2023-05-22T17:14:48.496Z,19.60
2023-05-22T17:17:16.291Z,19.50
2023-05-22T17:19:44.040Z,19.50
2023-05-22T17:22:11.880Z,19.30
2023-05-22T17:24:39.534Z,19.10
2023-05-22T17:27:07.600Z,18.90
2023-05-22T17:29:35.421Z,18.80
2023-05-22T17:32:08.555Z,18.60
2023-05-22T17:34:36.706Z,18.70
2023-05-22T17:37:04.695Z,18.70
2023-05-22T17:39:32.504Z,18.60
2023-05-22T17:42:00.620Z,18.60
2023-05-22T17:44:28.568Z,18.40
2023-05-22T17:46:56.314Z,18.40
2023-05-22T17:49:23.951Z,18.40
2023-05-22T17:51:51.722Z,18.30
2023-05-22T17:54:19.426Z,18.20
2023-05-22T17:56:47.142Z,18.10
2023-05-22T17:59:14.770Z,18.00
2023-05-22T18:01:42.528Z,18.00
2023-05-22T18:04:11.365Z,18.00
2023-05-22T18:06:39.074Z,17.90
2023-05-22T18:09:07.900Z,17.80
2023-05-22T18:11:35.679Z,17.60
2023-05-22T18:14:03.745Z,17.50
2023-05-22T18:16:31.493Z,17.30
2023-05-22T18:18:59.297Z,17.20
2023-05-22T18:21:26.976Z,17.10
2023-05-22T18:23:55.986Z,17.00
2023-05-22T18:26:23.681Z,16.80
2023-05-22T18:28:51.363Z,16.40
2023-05-22T18:31:19.151Z,16.20
2023-05-22T18:33:46.952Z,16.10
2023-05-22T18:36:14.670Z,16.00
2023-05-22T18:38:42.281Z,15.90
2023-05-22T18:41:09.979Z,15.80
2023-05-22T18:43:37.621Z,15.50
2023-05-22T18:46:05.366Z,15.50
2023-05-22T18:48:33.337Z,15.30
2023-05-22T18:51:01.166Z,15.20
2023-05-22T18:53:29.218Z,15.10
2023-05-22T18:55:56.970Z,15.00
2023-05-22T18:58:24.718Z,14.70
2023-05-22T19:00:55.505Z,14.60
2023-05-22T19:03:23.596Z,14.50
2023-05-22T19:05:51.701Z,14.30
2023-05-22T19:08:19.437Z,14.30
2023-05-22T19:10:47.094Z,14.30
2023-05-22T19:13:14.792Z,14.10
2023-05-22T19:15:42.577Z,14.10
2023-05-22T19:18:11.962Z,14.10
2023-05-22T19:20:39.993Z,14.10
2023-05-22T19:23:09.767Z,13.90
2023-05-22T19:25:37.501Z,13.70
2023-05-22T19:28:05.303Z,13.70
2023-05-22T19:30:33.043Z,13.60
2023-05-22T19:33:00.848Z,13.60
2023-05-22T19:35:28.605Z,13.50
2023-05-22T19:37:56.415Z,13.50
2023-05-22T19:40:24.181Z,13.30
2023-05-22T19:42:52.100Z,13.40
2023-05-22T19:45:19.957Z,13.30
2023-05-22T19:47:47.718Z,13.00
2023-05-22T19:50:15.464Z,12.90
2023-05-22T19:52:43.380Z,12.90
2023-05-22T19:55:11.462Z,12.80
2023-05-22T19:57:39.383Z,12.80
2023-05-22T20:00:07.921Z,12.60
2023-05-22T20:02:36.298Z,12.50
2023-05-22T20:05:04.669Z,12.50
2023-05-22T20:07:32.511Z,12.20
2023-05-22T20:10:00.263Z,12.00
2023-05-22T20:12:28.075Z,12.00
2023-05-22T20:14:55.903Z,11.90
2023-05-22T20:17:23.707Z,11.90
2023-05-22T20:19:51.437Z,11.90
2023-05-22T20:22:19.340Z,11.90
2023-05-22T20:24:47.400Z,11.90
2023-05-22T20:27:15.668Z,11.90
2023-05-22T20:29:43.425Z,11.70
2023-05-22T20:32:11.529Z,11.50
2023-05-22T20:34:40.121Z,11.50
2023-05-22T20:37:09.103Z,11.60
2023-05-22T20:39:36.883Z,11.60
2023-05-22T20:42:04.840Z,11.70
2023-05-22T20:44:32.558Z,11.60
2023-05-22T20:47:00.998Z,11.60
2023-05-22T20:49:30.009Z,11.50
2023-05-22T20:52:00.082Z,11.40
2023-05-22T20:54:34.254Z,11.50
2023-05-22T20:57:02.345Z,11.40
2023-05-22T20:59:30.268Z,11.20
2023-05-22T21:01:58.131Z,11.10
2023-05-22T21:04:26.464Z,10.90
2023-05-22T21:06:54.190Z,10.90
2023-05-22T21:09:21.967Z,10.90
2023-05-22T21:11:49.734Z,11.00
2023-05-22T21:14:17.528Z,11.10
2023-05-22T21:16:45.362Z,11.00
2023-05-22T21:19:13.282Z,11.00
2023-05-22T21:21:41.902Z,11.00
2023-05-22T21:24:10.057Z,10.90
2023-05-22T21:26:38.154Z,10.90
2023-05-22T21:29:06.020Z,10.90
2023-05-22T21:31:35.567Z,10.90
2023-05-22T21:34:03.628Z,11.00
2023-05-22T21:36:31.952Z,11.00
2023-05-22T21:39:00.536Z,10.90
2023-05-22T21:41:28.348Z,10.90
2023-05-22T21:43:57.625Z,10.90
2023-05-22T21:46:25.456Z,11.00
2023-05-22T21:48:53.977Z,11.10
2023-05-22T21:51:21.747Z,11.00
2023-05-22T21:53:49.449Z,10.90
2023-05-22T21:56:17.300Z,10.90
2023-05-22T21:58:45.016Z,10.90
2023-05-22T22:01:12.837Z,11.00
2023-05-22T22:03:41.014Z,11.00
2023-05-22T22:06:08.755Z,11.10
2023-05-22T22:08:36.608Z,11.10
2023-05-22T22:11:04.348Z,11.20
2023-05-22T22:13:32.655Z,11.20
2023-05-22T22:16:00.581Z,11.20
2023-05-22T22:18:28.336Z,11.20
2023-05-22T22:20:56.113Z,11.20
2023-05-22T22:23:23.817Z,11.30
2023-05-22T22:25:51.477Z,11.30
2023-05-22T22:28:19.251Z,11.40
2023-05-22T22:30:47.982Z,11.40
2023-05-22T22:33:15.783Z,11.30
2023-05-22T22:35:43.429Z,11.30
2023-05-22T22:38:11.268Z,11.30
2023-05-22T22:40:39.224Z,11.40
2023-05-22T22:43:07.085Z,11.30
2023-05-22T22:45:34.790Z,11.30
2023-05-22T22:48:03.585Z,11.30
2023-05-22T22:50:32.300Z,11.30
2023-05-22T22:53:00.024Z,11.30
2023-05-22T22:55:27.819Z,11.20
2023-05-22T22:57:55.885Z,11.20
2023-05-22T23:00:23.857Z,11.20
2023-05-22T23:02:51.667Z,11.20
2023-05-22T23:05:20.563Z,11.20
2023-05-22T23:07:49.281Z,11.20
2023-05-22T23:10:17.087Z,11.20
2023-05-22T23:12:44.809Z,11.20
2023-05-22T23:15:13.694Z,11.10
2023-05-22T23:17:42.197Z,11.10
2023-05-22T23:20:11.149Z,11.00
2023-05-22T23:22:38.824Z,11.00
2023-05-22T23:25:07.031Z,11.00
2023-05-22T23:27:34.762Z,11.10
2023-05-22T23:30:04.437Z,11.00
2023-05-22T23:32:32.743Z,11.00
2023-05-22T23:35:01.406Z,11.00
2023-05-22T23:37:29.206Z,11.00
2023-05-22T23:39:56.876Z,11.00
2023-05-22T23:42:27.611Z,10.90
2023-05-22T23:44:55.604Z,10.90
2023-05-22T23:47:23.359Z,10.90
2023-05-22T23:49:51.825Z,10.90
2023-05-22T23:52:19.538Z,10.90
2023-05-22T23:54:47.203Z,10.90
2023-05-22T23:57:15.005Z,10.90
2023-05-22T23:59:43.710Z,10.80
